createdAt,value
2018-04-13T00:00:14.305Z,14.90
2018-04-13T00:02:42.667Z,14.93
2018-04-13T00:05:11.033Z,15.21
2018-04-13T00:07:39.438Z,15.50
2018-04-13T00:10:07.790Z,15.20
2018-04-13T00:12:36.222Z,14.93
2018-04-13T00:15:04.572Z,15.17
2018-04-13T00:17:32.915Z,14.76
2018-04-13T00:20:01.270Z,15.00
2018-04-13T00:22:29.617Z,15.17
2018-04-13T00:24:58.014Z,15.38
2018-04-13T00:27:26.396Z,15.09
2018-04-13T00:29:54.814Z,14.40
2018-04-13T00:32:23.366Z,14.28
2018-04-13T00:34:51.799Z,14.73
2018-04-13T00:37:20.181Z,14.29
2018-04-13T00:39:48.532Z,14.20
2018-04-13T00:42:16.921Z,14.72
2018-04-13T00:44:45.273Z,14.80
2018-04-13T00:47:13.723Z,14.53
2018-04-13T00:49:42.087Z,14.28
2018-04-13T00:52:10.461Z,14.38
2018-04-13T00:54:38.827Z,14.87
2018-04-13T00:57:07.210Z,14.77
2018-04-13T00:59:35.621Z,15.07
2018-04-13T01:02:04.060Z,15.42
2018-04-13T01:04:32.419Z,14.96
2018-04-13T01:07:00.765Z,14.37
2018-04-13T01:09:29.166Z,14.24
2018-04-13T01:11:57.595Z,14.80
2018-04-13T01:14:26.045Z,15.41
2018-04-13T01:16:54.405Z,15.37
2018-04-13T01:19:22.867Z,15.39
2018-04-13T01:21:51.243Z,15.69
2018-04-13T01:24:19.835Z,15.78
2018-04-13T01:26:48.214Z,15.93
2018-04-13T01:29:16.598Z,15.85
2018-04-13T01:31:44.989Z,15.97
2018-04-13T01:34:13.374Z,15.57
2018-04-13T01:36:41.785Z,15.71
2018-04-13T01:39:10.140Z,15.89
2018-04-13T01:41:38.506Z,15.67
2018-04-13T01:44:06.865Z,15.65
2018-04-13T01:46:35.342Z,16.00
2018-04-13T01:49:03.741Z,16.23
2018-04-13T01:51:32.100Z,15.99
2018-04-13T01:54:00.524Z,16.30
2018-04-13T01:56:28.868Z,15.99
2018-04-13T01:58:57.226Z,16.27
2018-04-13T02:01:25.581Z,15.96
2018-04-13T02:03:53.931Z,16.23
2018-04-13T02:06:22.298Z,15.84
2018-04-13T02:08:50.671Z,15.83
2018-04-13T02:11:19.034Z,15.70
2018-04-13T02:13:47.402Z,16.18
2018-04-13T02:16:15.761Z,15.77
2018-04-13T02:18:44.128Z,15.94
2018-04-13T02:21:12.492Z,15.68
2018-04-13T02:23:40.842Z,15.47
2018-04-13T02:26:09.362Z,15.07
2018-04-13T02:28:37.837Z,15.19
2018-04-13T02:31:06.337Z,15.23
2018-04-13T02:33:34.760Z,15.64
2018-04-13T02:36:03.198Z,15.35
2018-04-13T02:38:31.611Z,15.09
2018-04-13T02:41:00.035Z,14.82
2018-04-13T02:43:28.407Z,14.66
2018-04-13T02:45:56.772Z,14.58
2018-04-13T02:48:25.189Z,14.76
2018-04-13T02:50:53.806Z,15.34
2018-04-13T02:53:22.213Z,15.19
2018-04-13T02:55:50.596Z,15.44
2018-04-13T02:58:18.997Z,15.56
2018-04-13T03:00:59.353Z,15.79
2018-04-13T03:03:27.701Z,15.87
2018-04-13T03:05:56.113Z,16.01
2018-04-13T03:08:24.503Z,16.64
2018-04-13T03:10:52.850Z,16.46
2018-04-13T03:13:21.266Z,16.33
2018-04-13T03:15:49.641Z,16.03
2018-04-13T03:18:18.050Z,16.05
2018-04-13T03:20:46.423Z,15.90
2018-04-13T03:23:14.784Z,15.69
2018-04-13T03:25:43.166Z,15.99
2018-04-13T03:28:11.540Z,16.48
2018-04-13T03:30:40.056Z,16.72
2018-04-13T03:33:08.463Z,16.71
2018-04-13T03:35:36.862Z,16.86
2018-04-13T03:38:05.339Z,16.65
2018-04-13T03:40:33.790Z,16.53
2018-04-13T03:43:02.195Z,16.73
2018-04-13T03:45:30.609Z,16.52
2018-04-13T03:47:58.981Z,16.36
2018-04-13T03:50:27.389Z,16.68
2018-04-13T03:52:55.821Z,16.66
2018-04-13T03:55:24.217Z,16.46
2018-04-13T03:57:52.664Z,16.44
2018-04-13T04:00:21.064Z,16.52
2018-04-13T04:02:49.464Z,16.14
2018-04-13T04:05:17.861Z,16.55
2018-04-13T04:07:46.222Z,17.26
2018-04-13T04:10:14.649Z,17.31
2018-04-13T04:12:43.009Z,17.26
2018-04-13T04:15:11.369Z,17.46
2018-04-13T04:17:39.729Z,17.33
2018-04-13T04:20:19.858Z,16.63
2018-04-13T04:23:00.145Z,16.29
2018-04-13T04:28:31.473Z,17.05
2018-04-13T04:30:59.833Z,17.00
2018-04-13T04:33:28.223Z,17.07
2018-04-13T04:35:56.601Z,16.81
2018-04-13T04:38:24.989Z,17.14
2018-04-13T04:40:53.425Z,17.11
2018-04-13T04:43:21.802Z,16.26
2018-04-13T04:45:50.171Z,16.27
2018-04-13T04:48:18.549Z,16.26
2018-04-13T04:50:46.917Z,15.93
2018-04-13T04:53:15.312Z,16.16
2018-04-13T04:55:43.690Z,16.26
2018-04-13T04:58:12.775Z,16.42
2018-04-13T05:00:41.161Z,15.85
2018-04-13T05:03:09.563Z,15.94
2018-04-13T05:05:37.971Z,15.80
2018-04-13T05:08:06.350Z,15.91
2018-04-13T05:10:34.714Z,15.27
2018-04-13T05:13:03.085Z,15.71
2018-04-13T05:15:31.482Z,15.59
2018-04-13T05:17:59.867Z,16.05
2018-04-13T05:20:29.198Z,16.20
2018-04-13T05:22:57.556Z,16.04
2018-04-13T05:25:25.923Z,16.26
2018-04-13T05:27:54.290Z,15.97
2018-04-13T05:30:22.665Z,16.72
2018-04-13T05:32:51.058Z,17.12
2018-04-13T05:35:19.539Z,17.39
2018-04-13T05:37:47.883Z,17.62
2018-04-13T05:40:16.403Z,16.99
2018-04-13T05:42:44.846Z,17.06
2018-04-13T05:45:13.246Z,17.46
2018-04-13T05:47:41.612Z,17.48
2018-04-13T05:50:10.431Z,17.65
2018-04-13T05:52:38.896Z,17.69
2018-04-13T05:55:07.297Z,17.30
2018-04-13T05:57:35.824Z,16.72
2018-04-13T06:00:04.206Z,16.18
2018-04-13T06:02:32.656Z,16.31
2018-04-13T06:05:01.039Z,16.37
2018-04-13T06:07:29.482Z,16.41
2018-04-13T06:09:57.882Z,16.65
2018-04-13T06:12:26.353Z,17.11
2018-04-13T06:14:54.831Z,17.41
2018-04-13T06:17:23.400Z,18.55
2018-04-13T06:19:51.887Z,18.47
2018-04-13T06:22:20.289Z,18.20
2018-04-13T06:24:48.834Z,17.75
2018-04-13T06:27:17.236Z,18.11
2018-04-13T06:29:45.756Z,18.12
2018-04-13T06:32:14.177Z,17.85
2018-04-13T06:34:42.581Z,17.70
2018-04-13T06:37:11.003Z,17.58
2018-04-13T06:39:39.414Z,17.57
2018-04-13T06:42:07.892Z,17.45
2018-04-13T06:44:36.299Z,17.17
2018-04-13T06:47:04.730Z,17.41
2018-04-13T06:49:33.119Z,17.24
2018-04-13T06:52:01.488Z,17.75
2018-04-13T06:54:29.917Z,17.37
2018-04-13T06:56:58.300Z,17.05
2018-04-13T06:59:26.681Z,17.34
2018-04-13T07:01:55.060Z,17.74
2018-04-13T07:04:23.464Z,17.37
2018-04-13T07:06:51.939Z,17.88
2018-04-13T07:09:20.349Z,17.70
2018-04-13T07:11:48.769Z,17.73
2018-04-13T07:14:17.195Z,17.20
2018-04-13T07:16:45.611Z,17.05
2018-04-13T07:19:14.902Z,17.21
2018-04-13T07:21:43.289Z,17.61
2018-04-13T07:24:11.714Z,16.54
2018-04-13T07:26:40.194Z,17.12
2018-04-13T07:29:08.601Z,17.52
2018-04-13T07:31:37.053Z,17.84
2018-04-13T07:34:05.957Z,17.69
2018-04-13T07:36:33.922Z,18.20
2018-04-13T07:39:02.375Z,17.69
2018-04-13T07:41:30.744Z,17.47
2018-04-13T07:43:59.172Z,17.59
2018-04-13T07:46:27.588Z,17.37
2018-04-13T07:48:56.063Z,17.07
2018-04-13T07:51:24.627Z,17.64
2018-04-13T07:53:52.861Z,17.82
2018-04-13T07:56:21.259Z,17.79
2018-04-13T07:58:49.648Z,17.86
2018-04-13T08:01:18.098Z,17.54
2018-04-13T08:03:46.478Z,17.51
2018-04-13T08:06:14.867Z,17.96
2018-04-13T08:08:43.238Z,17.79
2018-04-13T08:11:11.611Z,17.95
2018-04-13T08:13:40.047Z,17.98
2018-04-13T08:16:08.433Z,17.77
2018-04-13T08:18:36.822Z,17.75
2018-04-13T08:21:05.194Z,17.48
2018-04-13T08:23:33.585Z,16.80
2018-04-13T08:26:02.022Z,17.83
2018-04-13T08:28:30.441Z,17.38
2018-04-13T08:30:58.858Z,17.12
2018-04-13T08:33:27.219Z,17.77
2018-04-13T08:35:55.627Z,17.86
2018-04-13T08:38:24.162Z,17.98
2018-04-13T08:40:52.573Z,18.07
2018-04-13T08:43:21.049Z,17.93
2018-04-13T08:45:49.471Z,17.28
2018-04-13T08:48:17.861Z,17.82
2018-04-13T08:50:46.414Z,17.34
2018-04-13T08:53:14.795Z,17.16
2018-04-13T08:55:43.237Z,17.38
2018-04-13T08:58:11.666Z,16.99
2018-04-13T09:00:40.885Z,16.90
2018-04-13T09:03:09.325Z,16.52
2018-04-13T09:05:37.729Z,17.22
2018-04-13T09:08:06.184Z,17.03
2018-04-13T09:10:34.584Z,17.03
2018-04-13T09:13:03.051Z,16.75
2018-04-13T09:15:31.454Z,16.80
2018-04-13T09:17:59.842Z,16.87
2018-04-13T09:20:28.332Z,16.78
2018-04-13T09:22:56.955Z,16.78
2018-04-13T09:25:25.356Z,17.05
2018-04-13T09:27:53.796Z,16.64
2018-04-13T09:30:22.196Z,17.16
2018-04-13T09:32:50.815Z,17.31
2018-04-13T09:35:19.371Z,17.49
2018-04-13T09:37:47.808Z,17.51
2018-04-13T09:40:16.206Z,16.82
2018-04-13T09:42:44.602Z,17.19
2018-04-13T09:45:13.042Z,17.05
2018-04-13T09:47:41.448Z,16.74
2018-04-13T09:50:09.864Z,16.62
2018-04-13T09:52:38.259Z,16.54
2018-04-13T09:55:06.959Z,16.17
2018-04-13T09:57:35.369Z,16.47
2018-04-13T10:00:04.191Z,15.96
2018-04-13T10:02:38.021Z,16.50
2018-04-13T10:05:12.212Z,16.40
2018-04-13T10:07:40.611Z,16.23
2018-04-13T10:10:09.128Z,16.13
2018-04-13T10:12:37.705Z,16.01
2018-04-13T10:15:06.085Z,16.45
2018-04-13T10:17:34.491Z,16.63
2018-04-13T10:20:02.901Z,16.84
2018-04-13T10:22:31.321Z,17.13
2018-04-13T10:24:59.783Z,16.75
2018-04-13T10:27:28.165Z,16.29
2018-04-13T10:29:56.557Z,15.57
2018-04-13T10:32:24.945Z,16.00
2018-04-13T10:34:53.310Z,15.93
2018-04-13T10:37:21.854Z,15.24
2018-04-13T10:39:50.221Z,16.22
2018-04-13T10:42:18.579Z,16.00
2018-04-13T10:44:47.002Z,15.93
2018-04-13T10:47:15.443Z,16.71
2018-04-13T10:49:43.869Z,16.55
2018-04-13T10:52:12.235Z,16.69
2018-04-13T10:54:41.553Z,17.13
2018-04-13T10:57:09.942Z,17.45
2018-04-13T10:59:38.583Z,17.70
2018-04-13T11:02:07.530Z,16.92
2018-04-13T11:04:35.967Z,16.69
2018-04-13T11:07:04.373Z,16.54
2018-04-13T11:09:32.788Z,15.89
2018-04-13T11:12:01.212Z,15.85
2018-04-13T11:14:29.667Z,16.08
2018-04-13T11:16:58.070Z,16.74
2018-04-13T11:19:26.538Z,16.60
2018-04-13T11:21:55.050Z,16.42
2018-04-13T11:24:23.623Z,16.44
2018-04-13T11:26:53.364Z,17.09
2018-04-13T11:29:21.786Z,16.85
2018-04-13T11:31:50.385Z,16.48
2018-04-13T11:34:19.182Z,16.08
2018-04-13T11:36:47.619Z,16.47
2018-04-13T11:39:16.030Z,15.75
2018-04-13T11:41:44.441Z,15.82
2018-04-13T11:44:12.851Z,15.94
2018-04-13T11:46:41.267Z,16.23
2018-04-13T11:49:09.741Z,16.02
2018-04-13T11:51:38.228Z,16.56
2018-04-13T11:54:06.923Z,15.73
2018-04-13T11:56:35.322Z,15.26
2018-04-13T11:59:03.762Z,15.43
2018-04-13T12:01:32.316Z,15.34
2018-04-13T12:04:00.972Z,16.35
2018-04-13T12:06:29.457Z,15.73
2018-04-13T12:08:57.902Z,15.78
2018-04-13T12:11:26.804Z,15.56
2018-04-13T12:13:55.748Z,15.98
2018-04-13T12:16:24.160Z,15.97
2018-04-13T12:18:52.723Z,15.72
2018-04-13T12:21:21.188Z,16.29
2018-04-13T12:23:49.787Z,16.05
2018-04-13T12:26:18.214Z,16.67
2018-04-13T12:28:46.677Z,16.47
2018-04-13T12:31:15.223Z,16.27
2018-04-13T12:33:46.671Z,15.15
2018-04-13T12:36:15.096Z,15.69
2018-04-13T12:38:43.514Z,16.45
2018-04-13T12:41:12.658Z,16.67
2018-04-13T12:43:41.070Z,16.58
2018-04-13T12:46:09.470Z,16.61
2018-04-13T12:48:37.892Z,17.02
2018-04-13T12:51:06.274Z,16.34
2018-04-13T12:53:34.829Z,17.01
2018-04-13T12:56:03.308Z,17.02
2018-04-13T12:58:31.682Z,16.35
2018-04-13T13:01:00.066Z,16.35
2018-04-13T13:03:28.438Z,16.86
2018-04-13T13:05:56.874Z,16.42
2018-04-13T13:08:25.266Z,16.64
2018-04-13T13:10:53.671Z,17.18
2018-04-13T13:13:22.106Z,16.79
2018-04-13T13:15:50.530Z,17.08
2018-04-13T13:18:18.902Z,17.45
2018-04-13T13:20:47.323Z,17.48
2018-04-13T13:23:15.719Z,17.20
2018-04-13T13:25:44.147Z,16.89
2018-04-13T13:28:13.711Z,17.26
2018-04-13T13:30:42.160Z,17.40
2018-04-13T13:33:10.543Z,17.49
2018-04-13T13:35:38.928Z,16.82
2018-04-13T13:38:07.344Z,17.21
2018-04-13T13:40:35.795Z,16.73
2018-04-13T13:43:04.189Z,17.40
2018-04-13T13:45:32.585Z,17.15
2018-04-13T13:48:00.967Z,16.79
2018-04-13T13:50:29.329Z,16.98
2018-04-13T13:52:57.751Z,17.00
2018-04-13T13:55:26.231Z,16.87
2018-04-13T13:57:54.667Z,17.23
2018-04-13T14:00:23.031Z,16.93
2018-04-13T14:02:51.473Z,16.17
2018-04-13T14:05:19.865Z,16.85
2018-04-13T14:07:48.344Z,16.87
2018-04-13T14:10:16.774Z,16.89
2018-04-13T14:12:45.153Z,17.08
2018-04-13T14:15:13.524Z,16.63
2018-04-13T14:17:41.901Z,16.68
2018-04-13T14:20:10.263Z,16.62
2018-04-13T14:22:38.709Z,16.62
2018-04-13T14:25:07.079Z,16.55
2018-04-13T14:27:35.539Z,16.28
2018-04-13T14:30:04.003Z,16.59
2018-04-13T14:32:32.477Z,16.88
2018-04-13T14:35:00.977Z,16.13
2018-04-13T14:37:29.449Z,16.77
2018-04-13T14:39:57.846Z,16.75
2018-04-13T14:42:26.205Z,16.21
2018-04-13T14:44:54.589Z,16.68
2018-04-13T14:47:22.962Z,17.04
2018-04-13T14:49:51.340Z,16.74
2018-04-13T14:52:19.741Z,16.91
2018-04-13T14:54:48.122Z,17.40
2018-04-13T14:57:16.541Z,17.35
2018-04-13T14:59:44.929Z,16.77
2018-04-13T15:02:13.354Z,16.78
2018-04-13T15:04:41.744Z,17.33
2018-04-13T15:07:10.105Z,17.42
2018-04-13T15:09:38.502Z,16.91
2018-04-13T15:12:06.893Z,16.56
2018-04-13T15:14:35.304Z,16.98
2018-04-13T15:17:03.670Z,17.28
2018-04-13T15:19:32.058Z,17.70
2018-04-13T15:22:00.566Z,16.20
2018-04-13T15:24:29.013Z,17.05
2018-04-13T15:26:57.406Z,16.60
2018-04-13T15:29:25.763Z,17.49
2018-04-13T15:31:54.135Z,16.26
2018-04-13T15:34:22.616Z,16.88
2018-04-13T15:36:51.199Z,16.19
2018-04-13T15:39:19.712Z,16.32
2018-04-13T15:41:48.118Z,16.41
2018-04-13T15:44:16.534Z,15.85
2018-04-13T15:46:45.027Z,16.30
2018-04-13T15:49:13.689Z,16.87
2018-04-13T15:51:42.323Z,16.25
2018-04-13T15:54:10.687Z,17.06
2018-04-13T15:56:39.065Z,16.49
2018-04-13T15:59:07.443Z,16.66
2018-04-13T16:01:35.920Z,17.19
2018-04-13T16:04:04.274Z,17.01
2018-04-13T16:06:32.634Z,16.60
2018-04-13T16:09:01.022Z,17.12
2018-04-13T16:11:29.505Z,16.75
2018-04-13T16:13:57.972Z,17.10
2018-04-13T16:16:26.419Z,16.19
2018-04-13T16:18:54.780Z,16.72
2018-04-13T16:21:23.169Z,16.70
2018-04-13T16:23:51.530Z,16.04
2018-04-13T16:26:19.953Z,16.43
2018-04-13T16:28:48.328Z,17.48
2018-04-13T16:31:16.713Z,17.22
2018-04-13T16:33:45.085Z,16.50
2018-04-13T16:36:13.604Z,16.41
2018-04-13T16:38:41.969Z,16.68
2018-04-13T16:41:10.339Z,15.50
2018-04-13T16:43:38.711Z,16.05
2018-04-13T16:46:07.145Z,16.73
2018-04-13T16:48:35.775Z,16.55
2018-04-13T16:51:04.133Z,16.65
2018-04-13T16:53:32.710Z,16.54
2018-04-13T16:56:01.073Z,16.62
2018-04-13T16:58:29.483Z,16.82
2018-04-13T17:00:57.871Z,16.63
2018-04-13T17:03:26.350Z,16.23
2018-04-13T17:05:54.749Z,16.71
2018-04-13T17:08:23.241Z,16.25
2018-04-13T17:10:51.780Z,16.18
2018-04-13T17:13:20.212Z,16.86
2018-04-13T17:15:48.595Z,15.82
2018-04-13T17:18:17.061Z,15.19
2018-04-13T17:20:45.544Z,15.45
2018-04-13T17:23:14.100Z,15.06
2018-04-13T17:25:42.505Z,15.50
2018-04-13T17:28:10.900Z,15.99
2018-04-13T17:30:39.397Z,16.26
2018-04-13T17:33:07.805Z,15.67
2018-04-13T17:35:36.204Z,16.02
2018-04-13T17:38:04.757Z,16.35
2018-04-13T17:40:33.171Z,16.18
2018-04-13T17:43:01.514Z,15.77
2018-04-13T17:45:29.920Z,16.60
2018-04-13T17:47:58.391Z,15.95
2018-04-13T17:50:26.915Z,16.98
2018-04-13T17:52:55.309Z,17.07
2018-04-13T17:55:23.825Z,15.73
2018-04-13T17:57:52.191Z,16.50
2018-04-13T18:00:20.626Z,16.91
2018-04-13T18:02:49.180Z,16.15
2018-04-13T18:05:17.566Z,16.09
2018-04-13T18:07:45.973Z,16.56
2018-04-13T18:10:14.345Z,16.40
2018-04-13T18:12:42.723Z,15.57
2018-04-13T18:15:11.142Z,15.92
2018-04-13T18:17:39.524Z,15.17
2018-04-13T18:20:08.011Z,15.74
2018-04-13T18:22:36.409Z,15.74
2018-04-13T18:25:04.822Z,15.67
2018-04-13T18:27:33.233Z,15.37
2018-04-13T18:30:01.692Z,15.17
2018-04-13T18:32:30.311Z,15.97
2018-04-13T18:34:58.713Z,14.93
2018-04-13T18:37:27.125Z,16.00
2018-04-13T18:39:55.509Z,15.66
2018-04-13T18:42:24.040Z,15.47
2018-04-13T18:44:52.445Z,15.31
2018-04-13T18:47:20.868Z,16.01
2018-04-13T18:49:49.297Z,15.76
2018-04-13T18:52:17.681Z,16.10
2018-04-13T18:54:46.553Z,15.59
2018-04-13T18:57:14.995Z,15.44
2018-04-13T18:59:43.418Z,15.90
2018-04-13T19:02:11.781Z,15.83
2018-04-13T19:04:40.160Z,14.98
2018-04-13T19:07:08.574Z,15.67
2018-04-13T19:09:36.964Z,15.88
2018-04-13T19:12:05.443Z,16.44
2018-04-13T19:14:34.226Z,16.81
2018-04-13T19:17:02.630Z,16.72
2018-04-13T19:19:31.031Z,15.99
2018-04-13T19:21:59.423Z,15.89
2018-04-13T19:24:27.989Z,16.07
2018-04-13T19:26:56.389Z,16.67
2018-04-13T19:29:24.796Z,16.40
2018-04-13T19:31:53.191Z,16.04
2018-04-13T19:34:21.587Z,16.27
2018-04-13T19:36:50.052Z,16.41
2018-04-13T19:39:18.546Z,17.03
2018-04-13T19:41:47.065Z,17.03
2018-04-13T19:44:15.493Z,16.76
2018-04-13T19:46:44.021Z,16.79
2018-04-13T19:49:12.410Z,16.85
2018-04-13T19:51:40.816Z,16.70
2018-04-13T19:54:09.266Z,16.16
2018-04-13T19:56:37.694Z,16.37
2018-04-13T19:59:06.184Z,15.71
2018-04-13T20:01:34.588Z,15.76
2018-04-13T20:04:02.957Z,16.13
2018-04-13T20:06:31.353Z,16.29
2018-04-13T20:08:59.713Z,16.67
2018-04-13T20:11:28.159Z,15.94
2018-04-13T20:13:56.529Z,15.66
2018-04-13T20:16:24.922Z,16.34
2018-04-13T20:18:53.306Z,15.91
2018-04-13T20:21:21.673Z,16.19
2018-04-13T20:23:50.111Z,16.48
2018-04-13T20:26:18.461Z,16.39
2018-04-13T20:28:46.856Z,15.86
2018-04-13T20:31:15.249Z,16.42
2018-04-13T20:33:43.643Z,15.73
2018-04-13T20:36:12.077Z,15.77
2018-04-13T20:38:40.478Z,15.44
2018-04-13T20:41:08.846Z,16.05
2018-04-13T20:43:37.231Z,16.17
2018-04-13T20:46:05.593Z,15.65
2018-04-13T20:48:34.354Z,16.35
2018-04-13T20:51:02.771Z,16.19
2018-04-13T20:53:31.289Z,15.83
2018-04-13T20:55:59.690Z,15.64
2018-04-13T20:58:28.090Z,16.59
2018-04-13T21:00:56.475Z,16.43
2018-04-13T21:03:24.888Z,16.57
2018-04-13T21:05:53.441Z,16.65
2018-04-13T21:08:21.855Z,16.65
2018-04-13T21:10:50.252Z,15.33
2018-04-13T21:13:18.805Z,16.37
2018-04-13T21:15:47.205Z,15.24
2018-04-13T21:18:15.594Z,15.33
2018-04-13T21:20:43.970Z,15.71
2018-04-13T21:23:12.425Z,16.16
2018-04-13T21:25:40.822Z,16.10
2018-04-13T21:28:09.266Z,15.47
2018-04-13T21:30:37.657Z,16.29
2018-04-13T21:33:06.049Z,16.29
2018-04-13T21:35:34.542Z,15.74
2018-04-13T21:38:02.933Z,15.94
2018-04-13T21:40:31.331Z,15.24
2018-04-13T21:42:59.721Z,15.80
2018-04-13T21:45:28.117Z,15.27
2018-04-13T21:47:56.578Z,15.88
2018-04-13T21:50:24.976Z,15.14
2018-04-13T21:52:53.377Z,15.43
2018-04-13T21:55:21.850Z,14.52
2018-04-13T21:57:50.257Z,14.68
2018-04-13T22:00:18.804Z,15.26
2018-04-13T22:02:47.197Z,14.38
2018-04-13T22:05:15.603Z,14.27
2018-04-13T22:07:44.003Z,14.65
2018-04-13T22:10:12.416Z,14.88
2018-04-13T22:12:52.607Z,14.48
2018-04-13T22:15:26.915Z,14.63
2018-04-13T22:17:55.362Z,15.23
2018-04-13T22:20:23.725Z,15.36
2018-04-13T22:22:52.197Z,14.61
2018-04-13T22:25:20.693Z,14.91
2018-04-13T22:27:49.061Z,15.42
2018-04-13T22:30:17.682Z,15.22
2018-04-13T22:32:46.043Z,15.17
2018-04-13T22:35:14.454Z,15.44
2018-04-13T22:37:42.822Z,15.17
2018-04-13T22:40:11.228Z,15.39
2018-04-13T22:42:39.727Z,15.13
2018-04-13T22:45:08.144Z,15.72
2018-04-13T22:47:36.502Z,15.22
2018-04-13T22:50:04.887Z,15.64
2018-04-13T22:52:33.254Z,16.04
2018-04-13T22:55:01.642Z,16.02
2018-04-13T22:57:30.041Z,15.71
2018-04-13T22:59:58.447Z,16.08
2018-04-13T23:02:26.813Z,16.22
2018-04-13T23:04:55.260Z,15.89
2018-04-13T23:07:23.625Z,15.91
2018-04-13T23:09:52.021Z,15.43
2018-04-13T23:12:20.434Z,14.98
2018-04-13T23:14:48.809Z,15.79
2018-04-13T23:17:17.233Z,15.29
2018-04-13T23:19:45.616Z,15.32
2018-04-13T23:22:25.738Z,16.14
2018-04-13T23:24:54.154Z,15.28
2018-04-13T23:27:22.533Z,15.13
2018-04-13T23:29:50.898Z,15.42
2018-04-13T23:32:19.303Z,15.76
2018-04-13T23:34:47.756Z,15.97
2018-04-13T23:37:16.157Z,16.67
2018-04-13T23:39:44.556Z,16.32
2018-04-13T23:42:12.991Z,16.97
2018-04-13T23:44:41.390Z,16.33
2018-04-13T23:47:09.818Z,16.93
2018-04-13T23:49:38.210Z,16.78
2018-04-13T23:52:06.666Z,16.60
2018-04-13T23:54:35.054Z,16.41
2018-04-13T23:57:03.465Z,16.69
2018-04-13T23:59:31.958Z,16.19
